sensor_id;sensor_type;location;lat;lon;timestamp;P1;durP1;ratioP1;P2;durP2;ratioP2
10269;SDS011;70826;50.930;5.334;2024-02-04T00:02:22;37.92;;;35.88;;
10269;SDS011;70826;50.930;5.334;2024-02-04T00:04:54;38.55;;;36.42;;
10269;SDS011;70826;50.930;5.334;2024-02-04T00:07:20;39.33;;;37.15;;
10269;SDS011;70826;50.930;5.334;2024-02-04T00:09:46;41.08;;;38.83;;
10269;SDS011;70826;50.930;5.334;2024-02-04T00:12:14;39.55;;;37.38;;
10269;SDS011;70826;50.930;5.334;2024-02-04T00:14:42;39.35;;;37.20;;
10269;SDS011;70826;50.930;5.334;2024-02-04T00:17:10;39.40;;;37.28;;
10269;SDS011;70826;50.930;5.334;2024-02-04T00:19:40;39.28;;;37.10;;
10269;SDS011;70826;50.930;5.334;2024-02-04T00:22:08;43.58;;;41.05;;
10269;SDS011;70826;50.930;5.334;2024-02-04T00:24:34;41.40;;;39.03;;
10269;SDS011;70826;50.930;5.334;2024-02-04T00:27:02;42.38;;;40.03;;
10269;SDS011;70826;50.930;5.334;2024-02-04T00:29:31;42.55;;;40.13;;
10269;SDS011;70826;50.930;5.334;2024-02-04T00:32:01;41.00;;;38.72;;
10269;SDS011;70826;50.930;5.334;2024-02-04T00:34:32;43.97;;;41.42;;
10269;SDS011;70826;50.930;5.334;2024-02-04T00:37:01;41.50;;;39.13;;
10269;SDS011;70826;50.930;5.334;2024-02-04T00:39:26;43.92;;;41.42;;
10269;SDS011;70826;50.930;5.334;2024-02-04T00:41:54;45.10;;;42.50;;
10269;SDS011;70826;50.930;5.334;2024-02-04T00:44:22;43.28;;;40.80;;
10269;SDS011;70826;50.930;5.334;2024-02-04T00:46:52;43.90;;;41.45;;
10269;SDS011;70826;50.930;5.334;2024-02-04T00:49:20;45.78;;;42.92;;
10269;SDS011;70826;50.930;5.334;2024-02-04T00:51:50;45.38;;;42.65;;
10269;SDS011;70826;50.930;5.334;2024-02-04T00:54:15;43.53;;;41.08;;
10269;SDS011;70826;50.930;5.334;2024-02-04T00:56:49;43.60;;;41.03;;
10269;SDS011;70826;50.930;5.334;2024-02-04T00:59:17;46.38;;;43.75;;
10269;SDS011;70826;50.930;5.334;2024-02-04T01:01:42;46.80;;;44.25;;
10269;SDS011;70826;50.930;5.334;2024-02-04T01:04:11;46.35;;;43.70;;
10269;SDS011;70826;50.930;5.334;2024-02-04T01:06:39;45.65;;;43.08;;
10269;SDS011;70826;50.930;5.334;2024-02-04T01:09:07;47.00;;;44.28;;
10269;SDS011;70826;50.930;5.334;2024-02-04T01:11:35;48.63;;;45.83;;
10269;SDS011;70826;50.930;5.334;2024-02-04T01:14:03;44.58;;;42.00;;
10269;SDS011;70826;50.930;5.334;2024-02-04T01:16:28;47.80;;;45.05;;
10269;SDS011;70826;50.930;5.334;2024-02-04T01:18:54;49.22;;;46.50;;
10269;SDS011;70826;50.930;5.334;2024-02-04T01:21:22;45.28;;;42.72;;
10269;SDS011;70826;50.930;5.334;2024-02-04T01:23:50;51.15;;;48.22;;
10269;SDS011;70826;50.930;5.334;2024-02-04T01:26:16;50.72;;;47.88;;
10269;SDS011;70826;50.930;5.334;2024-02-04T01:28:44;47.63;;;44.88;;
10269;SDS011;70826;50.930;5.334;2024-02-04T01:31:09;50.05;;;47.15;;
10269;SDS011;70826;50.930;5.334;2024-02-04T01:33:38;51.92;;;48.92;;
10269;SDS011;70826;50.930;5.334;2024-02-04T01:36:06;52.08;;;49.08;;
10269;SDS011;70826;50.930;5.334;2024-02-04T01:38:32;56.75;;;53.30;;
10269;SDS011;70826;50.930;5.334;2024-02-04T01:40:57;52.08;;;49.13;;
10269;SDS011;70826;50.930;5.334;2024-02-04T01:43:25;53.72;;;50.60;;
10269;SDS011;70826;50.930;5.334;2024-02-04T01:45:53;54.70;;;51.58;;
10269;SDS011;70826;50.930;5.334;2024-02-04T01:48:21;56.42;;;53.15;;
10269;SDS011;70826;50.930;5.334;2024-02-04T01:50:48;54.60;;;51.50;;
10269;SDS011;70826;50.930;5.334;2024-02-04T01:53:17;55.13;;;51.97;;
10269;SDS011;70826;50.930;5.334;2024-02-04T01:55:46;60.17;;;56.70;;
10269;SDS011;70826;50.930;5.334;2024-02-04T01:58:16;59.20;;;55.72;;
10269;SDS011;70826;50.930;5.334;2024-02-04T02:00:42;62.55;;;59.03;;
10269;SDS011;70826;50.930;5.334;2024-02-04T02:03:08;66.32;;;62.50;;
10269;SDS011;70826;50.930;5.334;2024-02-04T02:05:42;65.15;;;61.47;;
10269;SDS011;70826;50.930;5.334;2024-02-04T02:08:10;69.90;;;65.88;;
10269;SDS011;70826;50.930;5.334;2024-02-04T02:10:38;61.63;;;58.13;;
10269;SDS011;70826;50.930;5.334;2024-02-04T02:13:11;72.10;;;67.95;;
10269;SDS011;70826;50.930;5.334;2024-02-04T02:15:48;70.50;;;66.45;;
10269;SDS011;70826;50.930;5.334;2024-02-04T02:18:19;74.03;;;69.78;;
10269;SDS011;70826;50.930;5.334;2024-02-04T02:23:43;71.55;;;67.57;;
10269;SDS011;70826;50.930;5.334;2024-02-04T02:26:21;75.43;;;71.00;;
10269;SDS011;70826;50.930;5.334;2024-02-04T02:28:50;71.50;;;67.43;;
10269;SDS011;70826;50.930;5.334;2024-02-04T02:31:16;75.43;;;71.13;;
10269;SDS011;70826;50.930;5.334;2024-02-04T02:33:44;75.93;;;71.55;;
10269;SDS011;70826;50.930;5.334;2024-02-04T02:36:12;76.60;;;72.22;;
10269;SDS011;70826;50.930;5.334;2024-02-04T02:41:45;73.05;;;68.95;;
10269;SDS011;70826;50.930;5.334;2024-02-04T02:44:20;71.15;;;67.18;;
10269;SDS011;70826;50.930;5.334;2024-02-04T02:46:52;72.20;;;68.13;;
10269;SDS011;70826;50.930;5.334;2024-02-04T02:49:20;74.18;;;69.93;;
10269;SDS011;70826;50.930;5.334;2024-02-04T02:51:49;74.07;;;69.93;;
10269;SDS011;70826;50.930;5.334;2024-02-04T02:54:14;71.70;;;67.75;;
10269;SDS011;70826;50.930;5.334;2024-02-04T02:56:47;76.88;;;72.63;;
10269;SDS011;70826;50.930;5.334;2024-02-04T02:59:12;74.40;;;70.35;;
10269;SDS011;70826;50.930;5.334;2024-02-04T03:01:40;73.28;;;69.22;;
10269;SDS011;70826;50.930;5.334;2024-02-04T03:04:08;76.43;;;72.22;;
10269;SDS011;70826;50.930;5.334;2024-02-04T03:06:36;73.68;;;69.63;;
10269;SDS011;70826;50.930;5.334;2024-02-04T03:09:02;70.97;;;67.05;;
10269;SDS011;70826;50.930;5.334;2024-02-04T03:11:27;72.85;;;68.85;;
10269;SDS011;70826;50.930;5.334;2024-02-04T03:13:58;70.57;;;66.68;;
10269;SDS011;70826;50.930;5.334;2024-02-04T03:16:26;71.30;;;67.45;;
10269;SDS011;70826;50.930;5.334;2024-02-04T03:18:56;68.68;;;64.85;;
10269;SDS011;70826;50.930;5.334;2024-02-04T03:21:24;71.25;;;67.35;;
10269;SDS011;70826;50.930;5.334;2024-02-04T03:23:50;67.80;;;63.80;;
10269;SDS011;70826;50.930;5.334;2024-02-04T03:26:18;70.78;;;66.95;;
10269;SDS011;70826;50.930;5.334;2024-02-04T03:28:46;66.15;;;62.47;;
10269;SDS011;70826;50.930;5.334;2024-02-04T03:31:11;65.68;;;62.05;;
10269;SDS011;70826;50.930;5.334;2024-02-04T03:33:46;66.25;;;62.55;;
10269;SDS011;70826;50.930;5.334;2024-02-04T03:36:21;64.05;;;60.50;;
10269;SDS011;70826;50.930;5.334;2024-02-04T03:38:51;63.28;;;59.78;;
10269;SDS011;70826;50.930;5.334;2024-02-04T03:41:19;65.57;;;61.97;;
10269;SDS011;70826;50.930;5.334;2024-02-04T03:43:49;63.47;;;59.92;;
10269;SDS011;70826;50.930;5.334;2024-02-04T03:46:15;60.45;;;57.10;;
10269;SDS011;70826;50.930;5.334;2024-02-04T03:48:46;63.50;;;59.95;;
10269;SDS011;70826;50.930;5.334;2024-02-04T03:51:17;58.92;;;55.70;;
10269;SDS011;70826;50.930;5.334;2024-02-04T03:53:47;61.28;;;57.72;;
10269;SDS011;70826;50.930;5.334;2024-02-04T03:56:13;59.10;;;55.80;;
10269;SDS011;70826;50.930;5.334;2024-02-04T03:58:41;56.65;;;53.50;;
10269;SDS011;70826;50.930;5.334;2024-02-04T04:01:10;57.50;;;54.30;;
10269;SDS011;70826;50.930;5.334;2024-02-04T04:03:38;58.25;;;54.97;;
10269;SDS011;70826;50.930;5.334;2024-02-04T04:06:08;60.97;;;57.58;;
10269;SDS011;70826;50.930;5.334;2024-02-04T04:08:36;58.55;;;55.30;;
10269;SDS011;70826;50.930;5.334;2024-02-04T04:11:07;58.78;;;55.47;;
10269;SDS011;70826;50.930;5.334;2024-02-04T04:13:36;52.92;;;49.85;;
10269;SDS011;70826;50.930;5.334;2024-02-04T04:16:04;54.90;;;51.85;;
10269;SDS011;70826;50.930;5.334;2024-02-04T04:18:33;55.17;;;51.97;;
10269;SDS011;70826;50.930;5.334;2024-02-04T04:20:58;53.63;;;50.65;;
10269;SDS011;70826;50.930;5.334;2024-02-04T04:23:29;51.33;;;48.40;;
10269;SDS011;70826;50.930;5.334;2024-02-04T04:25:59;52.85;;;49.83;;
10269;SDS011;70826;50.930;5.334;2024-02-04T04:28:25;51.65;;;48.78;;
10269;SDS011;70826;50.930;5.334;2024-02-04T04:30:52;51.58;;;48.72;;
10269;SDS011;70826;50.930;5.334;2024-02-04T04:33:23;52.42;;;49.42;;
10269;SDS011;70826;50.930;5.334;2024-02-04T04:35:51;54.70;;;51.55;;
10269;SDS011;70826;50.930;5.334;2024-02-04T04:38:21;49.15;;;46.45;;
10269;SDS011;70826;50.930;5.334;2024-02-04T04:40:54;52.40;;;49.45;;
10269;SDS011;70826;50.930;5.334;2024-02-04T04:43:22;52.28;;;49.33;;
10269;SDS011;70826;50.930;5.334;2024-02-04T04:45:47;48.53;;;45.80;;
10269;SDS011;70826;50.930;5.334;2024-02-04T04:48:13;52.20;;;49.30;;
10269;SDS011;70826;50.930;5.334;2024-02-04T04:50:41;51.25;;;48.35;;
10269;SDS011;70826;50.930;5.334;2024-02-04T04:53:07;51.28;;;48.40;;
10269;SDS011;70826;50.930;5.334;2024-02-04T04:55:32;52.65;;;49.75;;
10269;SDS011;70826;50.930;5.334;2024-02-04T04:58:00;50.58;;;47.75;;
10269;SDS011;70826;50.930;5.334;2024-02-04T05:00:25;50.45;;;47.55;;
10269;SDS011;70826;50.930;5.334;2024-02-04T05:02:55;50.17;;;47.42;;
10269;SDS011;70826;50.930;5.334;2024-02-04T05:05:21;50.67;;;47.78;;
10269;SDS011;70826;50.930;5.334;2024-02-04T05:07:47;49.85;;;47.10;;
10269;SDS011;70826;50.930;5.334;2024-02-04T05:10:17;48.67;;;46.00;;
10269;SDS011;70826;50.930;5.334;2024-02-04T05:12:45;49.42;;;46.72;;
10269;SDS011;70826;50.930;5.334;2024-02-04T05:15:15;51.17;;;48.17;;
10269;SDS011;70826;50.930;5.334;2024-02-04T05:17:43;50.90;;;48.03;;
10269;SDS011;70826;50.930;5.334;2024-02-04T05:20:09;52.40;;;49.35;;
10269;SDS011;70826;50.930;5.334;2024-02-04T05:22:35;49.53;;;46.70;;
10269;SDS011;70826;50.930;5.334;2024-02-04T05:25:05;53.08;;;50.08;;
10269;SDS011;70826;50.930;5.334;2024-02-04T05:27:34;48.92;;;46.17;;
10269;SDS011;70826;50.930;5.334;2024-02-04T05:30:01;52.50;;;49.53;;
10269;SDS011;70826;50.930;5.334;2024-02-04T05:32:27;49.63;;;46.90;;
10269;SDS011;70826;50.930;5.334;2024-02-04T05:34:57;53.25;;;50.22;;
10269;SDS011;70826;50.930;5.334;2024-02-04T05:37:23;52.20;;;49.15;;
10269;SDS011;70826;50.930;5.334;2024-02-04T05:39:51;52.58;;;49.58;;
10269;SDS011;70826;50.930;5.334;2024-02-04T05:42:16;54.80;;;51.60;;
10269;SDS011;70826;50.930;5.334;2024-02-04T05:44:42;52.65;;;49.70;;
10269;SDS011;70826;50.930;5.334;2024-02-04T05:47:08;51.25;;;48.38;;
10269;SDS011;70826;50.930;5.334;2024-02-04T05:49:36;54.97;;;51.88;;
10269;SDS011;70826;50.930;5.334;2024-02-04T05:52:04;53.03;;;50.08;;
10269;SDS011;70826;50.930;5.334;2024-02-04T05:54:32;50.53;;;47.65;;
10269;SDS011;70826;50.930;5.334;2024-02-04T05:57:04;51.72;;;48.78;;
10269;SDS011;70826;50.930;5.334;2024-02-04T05:59:30;50.97;;;47.95;;
10269;SDS011;70826;50.930;5.334;2024-02-04T06:02:00;50.42;;;47.63;;
10269;SDS011;70826;50.930;5.334;2024-02-04T06:04:26;49.67;;;46.80;;
10269;SDS011;70826;50.930;5.334;2024-02-04T06:06:54;51.83;;;48.92;;
10269;SDS011;70826;50.930;5.334;2024-02-04T06:09:24;52.17;;;49.20;;
10269;SDS011;70826;50.930;5.334;2024-02-04T06:11:55;49.83;;;46.90;;
10269;SDS011;70826;50.930;5.334;2024-02-04T06:14:25;50.13;;;47.25;;
10269;SDS011;70826;50.930;5.334;2024-02-04T06:16:53;49.08;;;46.35;;
10269;SDS011;70826;50.930;5.334;2024-02-04T06:19:24;50.25;;;47.35;;
10269;SDS011;70826;50.930;5.334;2024-02-04T06:21:49;52.47;;;49.50;;
10269;SDS011;70826;50.930;5.334;2024-02-04T06:24:17;50.05;;;47.28;;
10269;SDS011;70826;50.930;5.334;2024-02-04T06:26:45;50.20;;;47.38;;
10269;SDS011;70826;50.930;5.334;2024-02-04T06:29:13;51.45;;;48.47;;
10269;SDS011;70826;50.930;5.334;2024-02-04T06:31:43;54.47;;;51.22;;
10269;SDS011;70826;50.930;5.334;2024-02-04T06:34:12;50.88;;;48.03;;
10269;SDS011;70826;50.930;5.334;2024-02-04T06:36:41;53.17;;;50.13;;
10269;SDS011;70826;50.930;5.334;2024-02-04T06:39:10;50.92;;;48.08;;
10269;SDS011;70826;50.930;5.334;2024-02-04T06:41:36;53.20;;;50.20;;
10269;SDS011;70826;50.930;5.334;2024-02-04T06:44:04;53.13;;;50.03;;
10269;SDS011;70826;50.930;5.334;2024-02-04T06:46:34;51.72;;;48.83;;
10269;SDS011;70826;50.930;5.334;2024-02-04T06:49:04;52.33;;;49.42;;
10269;SDS011;70826;50.930;5.334;2024-02-04T06:51:32;51.63;;;48.72;;
10269;SDS011;70826;50.930;5.334;2024-02-04T06:53:58;49.75;;;46.95;;
10269;SDS011;70826;50.930;5.334;2024-02-04T06:56:26;51.22;;;48.30;;
10269;SDS011;70826;50.930;5.334;2024-02-04T06:58:56;52.42;;;49.53;;
10269;SDS011;70826;50.930;5.334;2024-02-04T07:01:22;54.05;;;50.92;;
10269;SDS011;70826;50.930;5.334;2024-02-04T07:03:55;50.90;;;48.05;;
10269;SDS011;70826;50.930;5.334;2024-02-04T07:06:20;53.10;;;50.10;;
10269;SDS011;70826;50.930;5.334;2024-02-04T07:08:48;51.72;;;48.85;;
10269;SDS011;70826;50.930;5.334;2024-02-04T07:11:17;54.28;;;51.25;;
10269;SDS011;70826;50.930;5.334;2024-02-04T07:13:43;54.55;;;51.50;;
10269;SDS011;70826;50.930;5.334;2024-02-04T07:16:13;56.65;;;53.40;;
10269;SDS011;70826;50.930;5.334;2024-02-04T07:18:43;52.47;;;49.53;;
10269;SDS011;70826;50.930;5.334;2024-02-04T07:21:11;54.97;;;51.85;;
10269;SDS011;70826;50.930;5.334;2024-02-04T07:23:39;55.28;;;52.03;;
10269;SDS011;70826;50.930;5.334;2024-02-04T07:26:05;55.88;;;52.67;;
10269;SDS011;70826;50.930;5.334;2024-02-04T07:28:33;57.55;;;54.28;;
10269;SDS011;70826;50.930;5.334;2024-02-04T07:31:01;59.13;;;55.70;;
10269;SDS011;70826;50.930;5.334;2024-02-04T07:33:29;57.45;;;54.20;;
10269;SDS011;70826;50.930;5.334;2024-02-04T07:36:02;56.65;;;53.22;;
10269;SDS011;70826;50.930;5.334;2024-02-04T07:38:32;59.33;;;55.85;;
10269;SDS011;70826;50.930;5.334;2024-02-04T07:40:58;56.78;;;53.40;;
10269;SDS011;70826;50.930;5.334;2024-02-04T07:43:26;57.15;;;53.85;;
10269;SDS011;70826;50.930;5.334;2024-02-04T07:45:53;57.20;;;53.97;;
10269;SDS011;70826;50.930;5.334;2024-02-04T07:48:23;60.20;;;56.75;;
10269;SDS011;70826;50.930;5.334;2024-02-04T07:50:48;61.80;;;58.17;;
10269;SDS011;70826;50.930;5.334;2024-02-04T07:53:16;58.67;;;55.28;;
10269;SDS011;70826;50.930;5.334;2024-02-04T07:55:44;59.42;;;56.08;;
10269;SDS011;70826;50.930;5.334;2024-02-04T07:58:09;58.30;;;54.92;;
10269;SDS011;70826;50.930;5.334;2024-02-04T08:00:37;59.85;;;56.38;;
10269;SDS011;70826;50.930;5.334;2024-02-04T08:03:05;57.95;;;54.67;;
10269;SDS011;70826;50.930;5.334;2024-02-04T08:05:33;63.67;;;59.90;;
10269;SDS011;70826;50.930;5.334;2024-02-04T08:08:02;61.17;;;57.65;;
10269;SDS011;70826;50.930;5.334;2024-02-04T08:10:30;62.72;;;59.13;;
10269;SDS011;70826;50.930;5.334;2024-02-04T08:12:58;61.50;;;58.03;;
10269;SDS011;70826;50.930;5.334;2024-02-04T08:15:24;62.85;;;59.30;;
10269;SDS011;70826;50.930;5.334;2024-02-04T08:17:50;64.35;;;60.58;;
10269;SDS011;70826;50.930;5.334;2024-02-04T08:20:15;62.50;;;58.90;;
10269;SDS011;70826;50.930;5.334;2024-02-04T08:22:42;61.55;;;58.00;;
10269;SDS011;70826;50.930;5.334;2024-02-04T08:25:10;61.58;;;57.97;;
10269;SDS011;70826;50.930;5.334;2024-02-04T08:27:36;66.35;;;62.50;;
10269;SDS011;70826;50.930;5.334;2024-02-04T08:30:03;64.47;;;60.80;;
10269;SDS011;70826;50.930;5.334;2024-02-04T08:32:31;70.28;;;66.22;;
10269;SDS011;70826;50.930;5.334;2024-02-04T08:34:57;68.18;;;64.25;;
10269;SDS011;70826;50.930;5.334;2024-02-04T08:37:27;66.68;;;62.67;;
10269;SDS011;70826;50.930;5.334;2024-02-04T08:39:57;70.00;;;66.00;;
10269;SDS011;70826;50.930;5.334;2024-02-04T08:42:25;68.90;;;64.95;;
10269;SDS011;70826;50.930;5.334;2024-02-04T08:44:53;66.45;;;62.47;;
10269;SDS011;70826;50.930;5.334;2024-02-04T08:47:21;69.30;;;65.22;;
10269;SDS011;70826;50.930;5.334;2024-02-04T08:49:47;68.47;;;64.57;;
10269;SDS011;70826;50.930;5.334;2024-02-04T08:52:17;68.47;;;64.43;;
10269;SDS011;70826;50.930;5.334;2024-02-04T08:54:45;70.55;;;66.47;;
10269;SDS011;70826;50.930;5.334;2024-02-04T08:57:16;71.50;;;67.13;;
10269;SDS011;70826;50.930;5.334;2024-02-04T08:59:44;66.93;;;63.08;;
10269;SDS011;70826;50.930;5.334;2024-02-04T09:02:12;67.68;;;63.40;;
10269;SDS011;70826;50.930;5.334;2024-02-04T09:04:42;71.22;;;66.28;;
10269;SDS011;70826;50.930;5.334;2024-02-04T09:07:11;76.50;;;71.95;;
10269;SDS011;70826;50.930;5.334;2024-02-04T09:09:38;68.97;;;64.68;;
10269;SDS011;70826;50.930;5.334;2024-02-04T09:12:05;70.53;;;66.05;;
10269;SDS011;70826;50.930;5.334;2024-02-04T09:14:33;68.93;;;64.75;;
10269;SDS011;70826;50.930;5.334;2024-02-04T09:16:58;71.88;;;67.45;;
10269;SDS011;70826;50.930;5.334;2024-02-04T09:19:29;70.18;;;65.75;;
10269;SDS011;70826;50.930;5.334;2024-02-04T09:21:56;74.75;;;70.20;;
10269;SDS011;70826;50.930;5.334;2024-02-04T09:24:21;71.28;;;66.65;;
10269;SDS011;70826;50.930;5.334;2024-02-04T09:26:55;65.78;;;61.80;;
10269;SDS011;70826;50.930;5.334;2024-02-04T09:29:20;67.32;;;63.20;;
10269;SDS011;70826;50.930;5.334;2024-02-04T09:31:51;68.40;;;64.40;;
10269;SDS011;70826;50.930;5.334;2024-02-04T09:34:18;68.93;;;64.82;;
10269;SDS011;70826;50.930;5.334;2024-02-04T09:36:44;67.80;;;63.80;;
10269;SDS011;70826;50.930;5.334;2024-02-04T09:39:14;68.00;;;63.78;;
10269;SDS011;70826;50.930;5.334;2024-02-04T09:41:44;71.75;;;67.40;;
10269;SDS011;70826;50.930;5.334;2024-02-04T09:44:12;67.10;;;63.20;;
10269;SDS011;70826;50.930;5.334;2024-02-04T09:46:42;67.40;;;63.20;;
10269;SDS011;70826;50.930;5.334;2024-02-04T09:49:08;73.63;;;69.25;;
10269;SDS011;70826;50.930;5.334;2024-02-04T09:51:34;68.75;;;64.50;;
10269;SDS011;70826;50.930;5.334;2024-02-04T09:54:03;68.30;;;64.25;;
10269;SDS011;70826;50.930;5.334;2024-02-04T09:56:33;71.78;;;67.53;;
10269;SDS011;70826;50.930;5.334;2024-02-04T09:59:01;67.93;;;63.95;;
10269;SDS011;70826;50.930;5.334;2024-02-04T10:01:29;68.78;;;64.85;;
10269;SDS011;70826;50.930;5.334;2024-02-04T10:03:58;73.78;;;69.38;;
10269;SDS011;70826;50.930;5.334;2024-02-04T10:06:24;74.75;;;70.43;;
10269;SDS011;70826;50.930;5.334;2024-02-04T10:08:52;73.53;;;69.22;;
10269;SDS011;70826;50.930;5.334;2024-02-04T10:11:20;73.10;;;68.85;;
10269;SDS011;70826;50.930;5.334;2024-02-04T10:13:46;72.03;;;67.80;;
10269;SDS011;70826;50.930;5.334;2024-02-04T10:16:17;75.90;;;71.50;;
10269;SDS011;70826;50.930;5.334;2024-02-04T10:18:48;72.38;;;68.13;;
10269;SDS011;70826;50.930;5.334;2024-02-04T10:21:19;73.22;;;68.85;;
10269;SDS011;70826;50.930;5.334;2024-02-04T10:23:46;72.65;;;68.38;;
10269;SDS011;70826;50.930;5.334;2024-02-04T10:26:17;71.75;;;67.50;;
10269;SDS011;70826;50.930;5.334;2024-02-04T10:28:48;76.72;;;72.25;;
10269;SDS011;70826;50.930;5.334;2024-02-04T10:31:14;71.50;;;67.35;;
10269;SDS011;70826;50.930;5.334;2024-02-04T10:33:42;76.65;;;72.10;;
10269;SDS011;70826;50.930;5.334;2024-02-04T10:36:11;73.57;;;69.22;;
10269;SDS011;70826;50.930;5.334;2024-02-04T10:38:36;74.65;;;70.32;;
10269;SDS011;70826;50.930;5.334;2024-02-04T10:41:02;80.28;;;72.82;;
10269;SDS011;70826;50.930;5.334;2024-02-04T10:43:36;74.93;;;68.93;;
10269;SDS011;70826;50.930;5.334;2024-02-04T10:46:09;70.50;;;65.25;;
10269;SDS011;70826;50.930;5.334;2024-02-04T10:48:41;77.82;;;71.60;;
10269;SDS011;70826;50.930;5.334;2024-02-04T10:51:13;77.53;;;72.40;;
10269;SDS011;70826;50.930;5.334;2024-02-04T10:53:47;78.13;;;72.32;;
10269;SDS011;70826;50.930;5.334;2024-02-04T10:56:18;77.57;;;72.70;;
10269;SDS011;70826;50.930;5.334;2024-02-04T10:58:49;79.45;;;74.57;;
10269;SDS011;70826;50.930;5.334;2024-02-04T11:01:17;75.78;;;70.85;;
10269;SDS011;70826;50.930;5.334;2024-02-04T11:03:48;80.75;;;75.60;;
10269;SDS011;70826;50.930;5.334;2024-02-04T11:06:17;80.40;;;75.22;;
10269;SDS011;70826;50.930;5.334;2024-02-04T11:08:45;82.78;;;77.88;;
10269;SDS011;70826;50.930;5.334;2024-02-04T11:11:17;80.95;;;76.07;;
10269;SDS011;70826;50.930;5.334;2024-02-04T11:13:45;84.60;;;79.68;;
10269;SDS011;70826;50.930;5.334;2024-02-04T11:16:59;78.13;;;73.53;;
10269;SDS011;70826;50.930;5.334;2024-02-04T11:21:55;80.28;;;75.75;;
10269;SDS011;70826;50.930;5.334;2024-02-04T11:27:22;85.03;;;80.07;;
10269;SDS011;70826;50.930;5.334;2024-02-04T11:29:52;78.68;;;74.00;;
10269;SDS011;70826;50.930;5.334;2024-02-04T11:32:20;80.82;;;76.22;;
10269;SDS011;70826;50.930;5.334;2024-02-04T11:34:46;78.78;;;74.20;;
10269;SDS011;70826;50.930;5.334;2024-02-04T11:37:18;80.20;;;75.68;;
10269;SDS011;70826;50.930;5.334;2024-02-04T11:39:51;82.50;;;77.80;;
10269;SDS011;70826;50.930;5.334;2024-02-04T11:42:25;81.20;;;76.53;;
10269;SDS011;70826;50.930;5.334;2024-02-04T11:45:07;79.25;;;74.63;;
10269;SDS011;70826;50.930;5.334;2024-02-04T11:47:39;82.68;;;78.07;;
10269;SDS011;70826;50.930;5.334;2024-02-04T11:50:08;82.00;;;77.28;;
10269;SDS011;70826;50.930;5.334;2024-02-04T11:52:39;82.88;;;77.97;;
10269;SDS011;70826;50.930;5.334;2024-02-04T11:55:12;81.15;;;76.47;;
10269;SDS011;70826;50.930;5.334;2024-02-04T11:57:42;82.50;;;77.65;;
10269;SDS011;70826;50.930;5.334;2024-02-04T12:00:10;82.63;;;77.72;;
10269;SDS011;70826;50.930;5.334;2024-02-04T12:02:36;79.68;;;75.18;;
10269;SDS011;70826;50.930;5.334;2024-02-04T12:05:04;79.63;;;75.15;;
10269;SDS011;70826;50.930;5.334;2024-02-04T12:07:36;82.20;;;77.55;;
10269;SDS011;70826;50.930;5.334;2024-02-04T12:10:03;80.18;;;75.63;;
10269;SDS011;70826;50.930;5.334;2024-02-04T12:12:30;83.80;;;78.85;;
10269;SDS011;70826;50.930;5.334;2024-02-04T12:14:56;78.40;;;74.03;;
10269;SDS011;70826;50.930;5.334;2024-02-04T12:17:22;80.82;;;76.25;;
10269;SDS011;70826;50.930;5.334;2024-02-04T12:19:50;81.57;;;76.97;;
10269;SDS011;70826;50.930;5.334;2024-02-04T12:22:18;80.68;;;76.10;;
10269;SDS011;70826;50.930;5.334;2024-02-04T12:24:46;83.35;;;78.53;;
10269;SDS011;70826;50.930;5.334;2024-02-04T12:27:15;79.32;;;74.82;;
10269;SDS011;70826;50.930;5.334;2024-02-04T12:29:45;81.72;;;77.13;;
10269;SDS011;70826;50.930;5.334;2024-02-04T12:32:19;78.65;;;74.20;;
10269;SDS011;70826;50.930;5.334;2024-02-04T12:34:48;83.20;;;78.32;;
10269;SDS011;70826;50.930;5.334;2024-02-04T12:37:21;81.00;;;76.47;;
10269;SDS011;70826;50.930;5.334;2024-02-04T12:39:47;78.43;;;74.05;;
10269;SDS011;70826;50.930;5.334;2024-02-04T12:42:15;79.57;;;75.07;;
10269;SDS011;70826;50.930;5.334;2024-02-04T12:44:48;81.22;;;76.63;;
10269;SDS011;70826;50.930;5.334;2024-02-04T12:47:18;78.32;;;73.88;;
10269;SDS011;70826;50.930;5.334;2024-02-04T12:49:47;80.35;;;75.80;;
10269;SDS011;70826;50.930;5.334;2024-02-04T12:52:20;79.18;;;74.78;;
10269;SDS011;70826;50.930;5.334;2024-02-04T12:54:46;77.60;;;73.15;;
10269;SDS011;70826;50.930;5.334;2024-02-04T12:57:22;78.57;;;74.22;;
10269;SDS011;70826;50.930;5.334;2024-02-04T13:00:03;80.53;;;76.03;;
10269;SDS011;70826;50.930;5.334;2024-02-04T13:02:34;77.90;;;73.55;;
10269;SDS011;70826;50.930;5.334;2024-02-04T13:05:04;78.50;;;74.07;;
10269;SDS011;70826;50.930;5.334;2024-02-04T13:07:35;78.95;;;74.55;;
10269;SDS011;70826;50.930;5.334;2024-02-04T13:10:06;76.43;;;72.18;;
10269;SDS011;70826;50.930;5.334;2024-02-04T13:12:37;76.28;;;71.95;;
10269;SDS011;70826;50.930;5.334;2024-02-04T13:15:06;76.38;;;72.15;;
10269;SDS011;70826;50.930;5.334;2024-02-04T13:17:37;76.97;;;72.60;;
10269;SDS011;70826;50.930;5.334;2024-02-04T13:20:05;77.50;;;73.20;;
10269;SDS011;70826;50.930;5.334;2024-02-04T13:22:36;73.00;;;68.90;;
10269;SDS011;70826;50.930;5.334;2024-02-04T13:25:07;74.38;;;70.20;;
10269;SDS011;70826;50.930;5.334;2024-02-04T13:27:34;75.15;;;71.00;;
10269;SDS011;70826;50.930;5.334;2024-02-04T13:30:05;73.18;;;69.13;;
10269;SDS011;70826;50.930;5.334;2024-02-04T13:32:39;77.15;;;72.85;;
10269;SDS011;70826;50.930;5.334;2024-02-04T13:35:08;78.80;;;74.40;;
10269;SDS011;70826;50.930;5.334;2024-02-04T13:37:39;70.68;;;66.80;;
10269;SDS011;70826;50.930;5.334;2024-02-04T13:40:20;73.53;;;69.32;;
10269;SDS011;70826;50.930;5.334;2024-02-04T13:42:49;74.35;;;70.28;;
10269;SDS011;70826;50.930;5.334;2024-02-04T13:45:15;73.03;;;68.97;;
10269;SDS011;70826;50.930;5.334;2024-02-04T13:47:43;76.07;;;71.90;;
10269;SDS011;70826;50.930;5.334;2024-02-04T13:50:13;72.80;;;68.80;;
10269;SDS011;70826;50.930;5.334;2024-02-04T13:52:41;72.30;;;68.38;;
10269;SDS011;70826;50.930;5.334;2024-02-04T13:55:09;74.70;;;70.72;;
10269;SDS011;70826;50.930;5.334;2024-02-04T13:57:40;73.72;;;69.63;;
10269;SDS011;70826;50.930;5.334;2024-02-04T14:00:08;72.95;;;68.95;;
10269;SDS011;70826;50.930;5.334;2024-02-04T14:02:39;73.72;;;69.75;;
10269;SDS011;70826;50.930;5.334;2024-02-04T14:05:04;72.82;;;68.82;;
10269;SDS011;70826;50.930;5.334;2024-02-04T14:07:33;71.15;;;67.30;;
10269;SDS011;70826;50.930;5.334;2024-02-04T14:10:01;76.88;;;72.68;;
10269;SDS011;70826;50.930;5.334;2024-02-04T14:12:29;73.07;;;69.05;;
10269;SDS011;70826;50.930;5.334;2024-02-04T14:14:59;74.05;;;70.00;;
10269;SDS011;70826;50.930;5.334;2024-02-04T14:17:24;77.85;;;73.60;;
10269;SDS011;70826;50.930;5.334;2024-02-04T14:19:52;74.60;;;70.50;;
10269;SDS011;70826;50.930;5.334;2024-02-04T14:22:22;74.70;;;70.65;;
10269;SDS011;70826;50.930;5.334;2024-02-04T14:24:50;72.93;;;69.00;;
10269;SDS011;70826;50.930;5.334;2024-02-04T14:27:17;74.35;;;70.35;;
10269;SDS011;70826;50.930;5.334;2024-02-04T14:29:44;76.32;;;72.22;;
10269;SDS011;70826;50.930;5.334;2024-02-04T14:32:15;74.22;;;70.22;;
10269;SDS011;70826;50.930;5.334;2024-02-04T14:34:45;72.40;;;68.53;;
10269;SDS011;70826;50.930;5.334;2024-02-04T14:37:17;74.38;;;70.32;;
10269;SDS011;70826;50.930;5.334;2024-02-04T14:39:42;73.43;;;69.47;;
10269;SDS011;70826;50.930;5.334;2024-02-04T14:42:10;74.22;;;70.15;;